VJC820 VVDN-VVTS
Flight info
| Callsign | VJC820 |
|---|---|
| Flight time | 0h 58m |
| Altitude | 34000 |
| Route | SADIN1G SADIN Q1 DOVIN DOVIN5P |
| Aircraft | A321/M-SDE3FGHIRWY/LB1 |
Departure
| Time | 2026-05-08 04:34 |
|---|---|
| Airport | Da Nang International Airport (VVDN) |
Arrival
| Time | 2026-05-08 05:32 |
|---|---|
| Airport | Tan Son Nhat International Airport (VVTS) |
| Time | Latitude | Longitude | Altitude | Speed | Heading |
|---|---|---|---|---|---|
| 2026-05-08 03:46 | 16.05219 | 108.20194 | 35 ft | 0 kts | 83° |
| 2026-05-08 04:24 | 16.05219 | 108.20192 | 34 ft | 2 kts | 83° |
| 2026-05-08 04:24 | 16.05216 | 108.20165 | 34 ft | 4 kts | 86° |
| 2026-05-08 04:24 | 16.05215 | 108.20138 | 34 ft | 4 kts | 89° |
| 2026-05-08 04:24 | 16.05215 | 108.20111 | 34 ft | 4 kts | 94° |
| 2026-05-08 04:25 | 16.05219 | 108.20084 | 34 ft | 4 kts | 107° |
| 2026-05-08 04:25 | 16.05230 | 108.20062 | 33 ft | 4 kts | 154° |
| 2026-05-08 04:25 | 16.05235 | 108.20060 | 33 ft | 0 kts | 173° |
| 2026-05-08 04:28 | 16.05224 | 108.20061 | 34 ft | 5 kts | 173° |
| 2026-05-08 04:28 | 16.05161 | 108.20070 | 34 ft | 13 kts | 173° |
| 2026-05-08 04:28 | 16.05040 | 108.20087 | 34 ft | 21 kts | 172° |
| 2026-05-08 04:28 | 16.04897 | 108.20108 | 33 ft | 20 kts | 172° |
| 2026-05-08 04:29 | 16.04807 | 108.20122 | 33 ft | 19 kts | 171° |
| 2026-05-08 04:29 | 16.04636 | 108.20148 | 34 ft | 18 kts | 172° |
| 2026-05-08 04:29 | 16.04518 | 108.20166 | 33 ft | 17 kts | 172° |
| 2026-05-08 04:29 | 16.04442 | 108.20176 | 33 ft | 16 kts | 173° |
| 2026-05-08 04:30 | 16.04336 | 108.20189 | 34 ft | 15 kts | 173° |
| 2026-05-08 04:30 | 16.04239 | 108.20204 | 34 ft | 15 kts | 171° |
| 2026-05-08 04:30 | 16.04116 | 108.20224 | 34 ft | 20 kts | 172° |
| 2026-05-08 04:30 | 16.03977 | 108.20243 | 35 ft | 20 kts | 172° |
| 2026-05-08 04:31 | 16.03832 | 108.20263 | 35 ft | 22 kts | 172° |
| 2026-05-08 04:31 | 16.03680 | 108.20285 | 34 ft | 23 kts | 172° |
| 2026-05-08 04:31 | 16.03520 | 108.20310 | 34 ft | 24 kts | 171° |
| 2026-05-08 04:31 | 16.03357 | 108.20334 | 33 ft | 24 kts | 172° |
| 2026-05-08 04:32 | 16.03217 | 108.20354 | 33 ft | 16 kts | 172° |
| 2026-05-08 04:32 | 16.03112 | 108.20369 | 33 ft | 15 kts | 173° |
| 2026-05-08 04:32 | 16.03073 | 108.20307 | 32 ft | 11 kts | 263° |
| 2026-05-08 04:32 | 16.03079 | 108.20238 | 31 ft | 9 kts | 312° |
| 2026-05-08 04:33 | 16.03116 | 108.20226 | 31 ft | 0 kts | 352° |
| 2026-05-08 04:33 | 16.03153 | 108.20220 | 31 ft | 25 kts | 352° |
| 2026-05-08 04:33 | 16.03567 | 108.20163 | 34 ft | 92 kts | 352° |
| 2026-05-08 04:34 | 16.04382 | 108.20037 | 33 ft | 142 kts | 352° |
| 2026-05-08 04:34 | 16.05488 | 108.19872 | 37 ft | 179 kts | 353° |
| 2026-05-08 04:34 | 16.06725 | 108.19706 | 598 ft | 173 kts | 355° |
| 2026-05-08 04:34 | 16.07903 | 108.19590 | 1236 ft | 171 kts | 359° |
| 2026-05-08 04:35 | 16.09087 | 108.19541 | 1786 ft | 169 kts | 2° |
| 2026-05-08 04:35 | 16.10292 | 108.19557 | 2019 ft | 181 kts | 4° |
| 2026-05-08 04:35 | 16.11605 | 108.19566 | 2152 ft | 197 kts | 1° |
| 2026-05-08 04:35 | 16.13030 | 108.19556 | 2287 ft | 212 kts | 1° |
| 2026-05-08 04:36 | 16.14554 | 108.19532 | 2425 ft | 227 kts | 1° |
| 2026-05-08 04:36 | 16.16143 | 108.19868 | 2514 ft | 245 kts | 33° |
| 2026-05-08 04:36 | 16.17285 | 108.21215 | 2770 ft | 258 kts | 70° |
| 2026-05-08 04:36 | 16.17566 | 108.23067 | 3308 ft | 263 kts | 88° |
| 2026-05-08 04:37 | 16.17618 | 108.24986 | 3961 ft | 266 kts | 90° |
| 2026-05-08 04:37 | 16.17625 | 108.26894 | 4619 ft | 269 kts | 90° |
| 2026-05-08 04:37 | 16.17623 | 108.28844 | 5261 ft | 271 kts | 90° |
| 2026-05-08 04:37 | 16.17625 | 108.30807 | 5940 ft | 271 kts | 90° |
| 2026-05-08 04:38 | 16.17634 | 108.32768 | 6629 ft | 271 kts | 90° |
| 2026-05-08 04:38 | 16.17645 | 108.34736 | 7208 ft | 274 kts | 91° |
| 2026-05-08 04:38 | 16.17225 | 108.36672 | 7738 ft | 279 kts | 117° |
| 2026-05-08 04:38 | 16.15958 | 108.38195 | 7961 ft | 284 kts | 146° |
| 2026-05-08 04:39 | 16.14103 | 108.38851 | 8000 ft | 287 kts | 174° |
| 2026-05-08 04:39 | 16.12100 | 108.38894 | 8002 ft | 288 kts | 177° |
| 2026-05-08 04:39 | 16.10092 | 108.38907 | 8004 ft | 288 kts | 177° |
| 2026-05-08 04:39 | 16.08106 | 108.38920 | 8078 ft | 292 kts | 177° |
| 2026-05-08 04:40 | 16.06079 | 108.38936 | 8700 ft | 292 kts | 177° |
| 2026-05-08 04:40 | 16.04041 | 108.38960 | 9294 ft | 294 kts | 177° |
| 2026-05-08 04:40 | 16.01987 | 108.38987 | 9847 ft | 297 kts | 177° |
| 2026-05-08 04:40 | 15.99905 | 108.39013 | 10242 ft | 305 kts | 177° |
| 2026-05-08 04:41 | 15.97719 | 108.39041 | 10353 ft | 323 kts | 177° |
| 2026-05-08 04:41 | 15.95406 | 108.39073 | 10469 ft | 340 kts | 178° |
| 2026-05-08 04:41 | 15.92983 | 108.39106 | 10583 ft | 356 kts | 178° |
| 2026-05-08 04:41 | 15.90483 | 108.39140 | 10700 ft | 371 kts | 178° |
| 2026-05-08 04:42 | 15.87869 | 108.39175 | 10859 ft | 383 kts | 178° |
| 2026-05-08 04:42 | 15.85186 | 108.39209 | 11234 ft | 388 kts | 178° |
| 2026-05-08 04:42 | 15.82469 | 108.39238 | 11686 ft | 391 kts | 178° |
| 2026-05-08 04:42 | 15.79747 | 108.39267 | 12144 ft | 393 kts | 178° |
| 2026-05-08 04:43 | 15.76953 | 108.39300 | 12597 ft | 396 kts | 178° |
| 2026-05-08 04:43 | 15.74196 | 108.39335 | 13046 ft | 398 kts | 178° |
| 2026-05-08 04:43 | 15.71380 | 108.39372 | 13486 ft | 401 kts | 178° |
| 2026-05-08 04:43 | 15.68579 | 108.39410 | 13894 ft | 403 kts | 178° |
| 2026-05-08 04:44 | 15.65766 | 108.39447 | 14280 ft | 405 kts | 178° |
| 2026-05-08 04:44 | 15.62940 | 108.39484 | 14665 ft | 407 kts | 178° |
| 2026-05-08 04:44 | 15.60103 | 108.39522 | 15031 ft | 409 kts | 178° |
| 2026-05-08 04:44 | 15.57245 | 108.39540 | 15401 ft | 411 kts | 181° |
| 2026-05-08 04:45 | 15.54400 | 108.39181 | 15756 ft | 415 kts | 191° |
| 2026-05-08 04:45 | 15.51626 | 108.38303 | 16116 ft | 418 kts | 201° |
| 2026-05-08 04:45 | 15.48966 | 108.37059 | 16467 ft | 421 kts | 203° |
| 2026-05-08 04:45 | 15.46337 | 108.35811 | 16836 ft | 422 kts | 203° |
| 2026-05-08 04:46 | 15.43655 | 108.34542 | 17192 ft | 424 kts | 203° |
| 2026-05-08 04:46 | 15.40969 | 108.33273 | 17545 ft | 426 kts | 203° |
| 2026-05-08 04:46 | 15.38271 | 108.32001 | 17891 ft | 428 kts | 203° |
| 2026-05-08 04:46 | 15.35553 | 108.30719 | 18243 ft | 429 kts | 203° |
| 2026-05-08 04:47 | 15.32835 | 108.29435 | 18530 ft | 431 kts | 203° |
| 2026-05-08 04:47 | 15.30105 | 108.28145 | 18819 ft | 433 kts | 203° |
| 2026-05-08 04:47 | 15.27355 | 108.26848 | 19113 ft | 434 kts | 203° |
| 2026-05-08 04:47 | 15.24598 | 108.25549 | 19415 ft | 436 kts | 203° |
| 2026-05-08 04:48 | 15.21869 | 108.24262 | 19693 ft | 438 kts | 203° |
| 2026-05-08 04:48 | 15.19091 | 108.22952 | 19959 ft | 440 kts | 203° |
| 2026-05-08 04:48 | 15.16299 | 108.21636 | 20249 ft | 442 kts | 203° |
| 2026-05-08 04:48 | 15.13489 | 108.20314 | 20525 ft | 444 kts | 204° |
| 2026-05-08 04:49 | 15.10663 | 108.19020 | 20795 ft | 445 kts | 199° |
| 2026-05-08 04:49 | 15.07697 | 108.18093 | 21061 ft | 446 kts | 191° |
| 2026-05-08 04:49 | 15.04629 | 108.17667 | 21337 ft | 446 kts | 182° |
| 2026-05-08 04:49 | 15.01513 | 108.17592 | 21590 ft | 447 kts | 180° |
| 2026-05-08 04:50 | 14.98405 | 108.17525 | 21847 ft | 449 kts | 180° |
| 2026-05-08 04:50 | 14.95276 | 108.17454 | 22083 ft | 451 kts | 180° |
| 2026-05-08 04:50 | 14.92171 | 108.17382 | 22358 ft | 453 kts | 180° |
| 2026-05-08 04:50 | 14.89015 | 108.17308 | 22581 ft | 455 kts | 180° |
| 2026-05-08 04:51 | 14.85842 | 108.17235 | 22821 ft | 457 kts | 181° |
| 2026-05-08 04:51 | 14.82659 | 108.17164 | 23060 ft | 459 kts | 180° |
| 2026-05-08 04:51 | 14.79467 | 108.17094 | 23335 ft | 459 kts | 180° |
| 2026-05-08 04:51 | 14.76268 | 108.17026 | 23560 ft | 461 kts | 181° |
| 2026-05-08 04:52 | 14.73061 | 108.16957 | 23745 ft | 463 kts | 180° |
| 2026-05-08 04:52 | 14.69836 | 108.16886 | 23957 ft | 464 kts | 180° |
| 2026-05-08 04:52 | 14.66611 | 108.16813 | 24142 ft | 465 kts | 181° |
| 2026-05-08 04:52 | 14.63366 | 108.16739 | 24315 ft | 467 kts | 181° |
| 2026-05-08 04:53 | 14.60155 | 108.16665 | 24462 ft | 469 kts | 180° |
| 2026-05-08 04:53 | 14.56881 | 108.16592 | 24656 ft | 471 kts | 181° |
| 2026-05-08 04:53 | 14.53597 | 108.16520 | 24810 ft | 473 kts | 181° |
| 2026-05-08 04:53 | 14.50306 | 108.16452 | 24985 ft | 474 kts | 180° |
| 2026-05-08 04:54 | 14.47007 | 108.16385 | 25148 ft | 476 kts | 180° |
| 2026-05-08 04:54 | 14.43684 | 108.16313 | 25337 ft | 477 kts | 180° |
| 2026-05-08 04:54 | 14.40360 | 108.16237 | 25508 ft | 479 kts | 180° |
| 2026-05-08 04:54 | 14.37018 | 108.16161 | 25682 ft | 480 kts | 180° |
| 2026-05-08 04:55 | 14.33675 | 108.16087 | 25858 ft | 482 kts | 180° |
| 2026-05-08 04:55 | 14.30318 | 108.16015 | 26022 ft | 484 kts | 180° |
| 2026-05-08 04:55 | 14.26988 | 108.15942 | 26189 ft | 485 kts | 180° |
| 2026-05-08 04:55 | 14.23603 | 108.15868 | 26347 ft | 487 kts | 180° |
| 2026-05-08 04:56 | 14.20217 | 108.15797 | 26544 ft | 488 kts | 180° |
| 2026-05-08 04:56 | 14.16824 | 108.15725 | 26783 ft | 487 kts | 180° |
| 2026-05-08 04:56 | 14.13439 | 108.15652 | 27023 ft | 487 kts | 180° |
| 2026-05-08 04:56 | 14.10056 | 108.15576 | 27251 ft | 486 kts | 181° |
| 2026-05-08 04:57 | 14.06666 | 108.15500 | 27479 ft | 486 kts | 180° |
| 2026-05-08 04:57 | 14.03287 | 108.15427 | 27706 ft | 486 kts | 180° |
| 2026-05-08 04:57 | 13.99900 | 108.15356 | 27932 ft | 486 kts | 180° |
| 2026-05-08 04:57 | 13.96521 | 108.15286 | 28156 ft | 486 kts | 180° |
| 2026-05-08 04:58 | 13.93185 | 108.15217 | 28370 ft | 486 kts | 180° |
| 2026-05-08 04:58 | 13.89812 | 108.15145 | 28597 ft | 485 kts | 180° |
| 2026-05-08 04:58 | 13.86435 | 108.15070 | 28811 ft | 485 kts | 181° |
| 2026-05-08 04:58 | 13.83063 | 108.14994 | 29015 ft | 486 kts | 180° |
| 2026-05-08 04:59 | 13.79676 | 108.14917 | 29202 ft | 486 kts | 180° |
| 2026-05-08 04:59 | 13.76303 | 108.14843 | 29424 ft | 486 kts | 180° |
| 2026-05-08 04:59 | 13.72918 | 108.14769 | 29595 ft | 487 kts | 180° |
| 2026-05-08 04:59 | 13.69518 | 108.14692 | 29807 ft | 487 kts | 180° |
| 2026-05-08 05:00 | 13.66130 | 108.14615 | 30050 ft | 486 kts | 180° |
| 2026-05-08 05:00 | 13.62749 | 108.14540 | 30213 ft | 486 kts | 180° |
| 2026-05-08 05:00 | 13.59374 | 108.14468 | 30437 ft | 485 kts | 180° |
| 2026-05-08 05:00 | 13.55999 | 108.14396 | 30629 ft | 485 kts | 180° |
| 2026-05-08 05:01 | 13.52622 | 108.14320 | 30804 ft | 486 kts | 180° |
| 2026-05-08 05:01 | 13.49283 | 108.14245 | 30965 ft | 486 kts | 180° |
| 2026-05-08 05:01 | 13.45896 | 108.14173 | 31121 ft | 487 kts | 180° |
| 2026-05-08 05:01 | 13.42513 | 108.14105 | 31286 ft | 488 kts | 180° |
| 2026-05-08 05:02 | 13.39113 | 108.14036 | 31473 ft | 488 kts | 180° |
| 2026-05-08 05:02 | 13.35718 | 108.13965 | 31714 ft | 487 kts | 180° |
| 2026-05-08 05:02 | 13.32337 | 108.13892 | 31913 ft | 487 kts | 180° |
| 2026-05-08 05:02 | 13.28955 | 108.13810 | 32152 ft | 486 kts | 180° |
| 2026-05-08 05:03 | 13.25577 | 108.13722 | 32381 ft | 485 kts | 180° |
| 2026-05-08 05:03 | 13.22200 | 108.13634 | 32574 ft | 485 kts | 180° |
| 2026-05-08 05:03 | 13.18833 | 108.13548 | 32782 ft | 485 kts | 180° |
| 2026-05-08 05:03 | 13.15453 | 108.13465 | 32978 ft | 485 kts | 180° |
| 2026-05-08 05:04 | 13.12068 | 108.13385 | 33169 ft | 486 kts | 180° |
| 2026-05-08 05:04 | 13.08746 | 108.13307 | 33357 ft | 486 kts | 180° |
| 2026-05-08 05:04 | 13.05358 | 108.13225 | 33546 ft | 486 kts | 180° |
| 2026-05-08 05:04 | 13.01983 | 108.13145 | 33736 ft | 486 kts | 180° |
| 2026-05-08 05:05 | 12.98593 | 108.13065 | 33885 ft | 487 kts | 180° |
| 2026-05-08 05:05 | 12.95167 | 108.12984 | 33927 ft | 486 kts | 180° |
| 2026-05-08 05:05 | 12.88420 | 108.12821 | 33915 ft | 485 kts | 180° |
| 2026-05-08 05:06 | 12.81659 | 108.12659 | 33924 ft | 485 kts | 180° |
| 2026-05-08 05:06 | 12.74911 | 108.12496 | 33906 ft | 485 kts | 180° |
| 2026-05-08 05:07 | 12.68169 | 108.12339 | 33913 ft | 485 kts | 180° |
| 2026-05-08 05:07 | 12.61425 | 108.12187 | 33914 ft | 485 kts | 180° |
| 2026-05-08 05:08 | 12.54736 | 108.12056 | 33923 ft | 485 kts | 180° |
| 2026-05-08 05:08 | 12.48045 | 108.11929 | 33930 ft | 485 kts | 180° |
| 2026-05-08 05:09 | 12.41322 | 108.11793 | 33940 ft | 485 kts | 180° |
| 2026-05-08 05:09 | 12.34617 | 108.11660 | 33941 ft | 485 kts | 180° |
| 2026-05-08 05:10 | 12.24616 | 108.10532 | 33953 ft | 485 kts | 203° |
| 2026-05-08 05:10 | 12.21661 | 108.08970 | 33827 ft | 486 kts | 210° |
| 2026-05-08 05:11 | 12.18717 | 108.07263 | 33563 ft | 486 kts | 210° |
| 2026-05-08 05:11 | 12.15794 | 108.05547 | 33328 ft | 486 kts | 210° |
| 2026-05-08 05:11 | 12.12862 | 108.03817 | 33079 ft | 485 kts | 210° |
| 2026-05-08 05:11 | 12.09950 | 108.02100 | 32818 ft | 484 kts | 210° |
| 2026-05-08 05:12 | 12.07022 | 108.00378 | 32569 ft | 484 kts | 210° |
| 2026-05-08 05:12 | 12.04111 | 107.98671 | 32334 ft | 483 kts | 210° |
| 2026-05-08 05:12 | 12.01190 | 107.96962 | 32092 ft | 483 kts | 210° |
| 2026-05-08 05:12 | 11.98274 | 107.95262 | 31854 ft | 483 kts | 210° |
| 2026-05-08 05:13 | 11.95361 | 107.93568 | 31615 ft | 483 kts | 210° |
| 2026-05-08 05:13 | 11.92476 | 107.91892 | 31396 ft | 482 kts | 210° |
| 2026-05-08 05:13 | 11.89525 | 107.90175 | 31138 ft | 482 kts | 210° |
| 2026-05-08 05:13 | 11.86690 | 107.88520 | 30897 ft | 480 kts | 210° |
| 2026-05-08 05:14 | 11.83725 | 107.86788 | 29777 ft | 489 kts | 210° |
| 2026-05-08 05:14 | 11.80793 | 107.85076 | 28584 ft | 497 kts | 210° |
| 2026-05-08 05:14 | 11.77778 | 107.83318 | 27572 ft | 499 kts | 209° |
| 2026-05-08 05:14 | 11.74753 | 107.81557 | 26503 ft | 502 kts | 209° |
| 2026-05-08 05:15 | 11.71711 | 107.79785 | 25340 ft | 507 kts | 208° |
| 2026-05-08 05:15 | 11.68649 | 107.78001 | 24331 ft | 508 kts | 208° |
| 2026-05-08 05:15 | 11.65574 | 107.76209 | 23485 ft | 507 kts | 208° |
| 2026-05-08 05:15 | 11.62533 | 107.74440 | 22788 ft | 499 kts | 208° |
| 2026-05-08 05:16 | 11.59538 | 107.72697 | 22079 ft | 493 kts | 208° |
| 2026-05-08 05:16 | 11.56580 | 107.70976 | 21382 ft | 487 kts | 208° |
| 2026-05-08 05:16 | 11.53654 | 107.69272 | 20669 ft | 482 kts | 208° |
| 2026-05-08 05:16 | 11.50756 | 107.67582 | 19966 ft | 475 kts | 208° |
| 2026-05-08 05:17 | 11.47918 | 107.65927 | 18948 ft | 467 kts | 208° |
| 2026-05-08 05:17 | 11.45120 | 107.64298 | 17891 ft | 460 kts | 208° |
| 2026-05-08 05:17 | 11.42354 | 107.62689 | 17059 ft | 448 kts | 208° |
| 2026-05-08 05:17 | 11.39670 | 107.61132 | 16444 ft | 437 kts | 208° |
| 2026-05-08 05:18 | 11.37035 | 107.59604 | 15802 ft | 433 kts | 208° |
| 2026-05-08 05:18 | 11.34421 | 107.58088 | 15181 ft | 429 kts | 208° |
| 2026-05-08 05:18 | 11.31850 | 107.56595 | 14616 ft | 425 kts | 208° |
| 2026-05-08 05:18 | 11.29326 | 107.55130 | 14058 ft | 421 kts | 208° |
| 2026-05-08 05:19 | 11.26803 | 107.53667 | 13603 ft | 414 kts | 208° |
| 2026-05-08 05:19 | 11.24310 | 107.52221 | 13026 ft | 410 kts | 208° |
| 2026-05-08 05:19 | 11.21850 | 107.50792 | 12481 ft | 405 kts | 208° |
| 2026-05-08 05:19 | 11.19441 | 107.49391 | 12233 ft | 393 kts | 208° |
| 2026-05-08 05:20 | 11.17111 | 107.48034 | 12100 ft | 378 kts | 208° |
| 2026-05-08 05:20 | 11.14866 | 107.46729 | 11985 ft | 364 kts | 208° |
| 2026-05-08 05:20 | 11.12697 | 107.45472 | 11859 ft | 352 kts | 208° |
| 2026-05-08 05:20 | 11.10605 | 107.44260 | 11741 ft | 340 kts | 208° |
| 2026-05-08 05:21 | 11.08586 | 107.43089 | 11627 ft | 329 kts | 208° |
| 2026-05-08 05:21 | 11.06632 | 107.41958 | 11488 ft | 318 kts | 208° |
| 2026-05-08 05:21 | 11.04750 | 107.40868 | 11262 ft | 312 kts | 208° |
| 2026-05-08 05:21 | 11.02944 | 107.39640 | 11095 ft | 309 kts | 220° |
| 2026-05-08 05:22 | 11.01534 | 107.38026 | 10947 ft | 311 kts | 236° |
| 2026-05-08 05:22 | 11.00655 | 107.36034 | 10720 ft | 310 kts | 252° |
| 2026-05-08 05:22 | 11.00027 | 107.33967 | 10487 ft | 310 kts | 252° |
| 2026-05-08 05:22 | 10.99393 | 107.31869 | 10259 ft | 309 kts | 252° |
| 2026-05-08 05:23 | 10.98768 | 107.29782 | 10033 ft | 308 kts | 252° |
| 2026-05-08 05:23 | 10.98150 | 107.27708 | 9869 ft | 306 kts | 252° |
| 2026-05-08 05:23 | 10.97532 | 107.25634 | 9760 ft | 306 kts | 252° |
| 2026-05-08 05:23 | 10.96913 | 107.23560 | 9633 ft | 306 kts | 252° |
| 2026-05-08 05:24 | 10.96296 | 107.21491 | 9507 ft | 305 kts | 252° |
| 2026-05-08 05:24 | 10.95687 | 107.19451 | 9381 ft | 305 kts | 253° |
| 2026-05-08 05:24 | 10.95073 | 107.17393 | 9257 ft | 304 kts | 253° |
| 2026-05-08 05:24 | 10.94461 | 107.15341 | 9133 ft | 304 kts | 253° |
| 2026-05-08 05:25 | 10.93847 | 107.13283 | 8929 ft | 304 kts | 253° |
| 2026-05-08 05:25 | 10.93233 | 107.11227 | 8503 ft | 304 kts | 253° |
| 2026-05-08 05:25 | 10.92615 | 107.09153 | 8064 ft | 305 kts | 253° |
| 2026-05-08 05:25 | 10.92001 | 107.07092 | 7917 ft | 294 kts | 253° |
| 2026-05-08 05:26 | 10.91417 | 107.05135 | 7772 ft | 284 kts | 253° |
| 2026-05-08 05:26 | 10.90850 | 107.03236 | 7600 ft | 276 kts | 253° |
| 2026-05-08 05:26 | 10.90298 | 107.01384 | 7315 ft | 273 kts | 253° |
| 2026-05-08 05:26 | 10.89748 | 106.99540 | 6990 ft | 272 kts | 253° |
| 2026-05-08 05:27 | 10.89205 | 106.97729 | 6675 ft | 270 kts | 253° |
| 2026-05-08 05:27 | 10.88669 | 106.95948 | 6401 ft | 266 kts | 253° |
| 2026-05-08 05:27 | 10.88129 | 106.94153 | 5960 ft | 266 kts | 253° |
| 2026-05-08 05:27 | 10.87589 | 106.92359 | 5538 ft | 265 kts | 253° |
| 2026-05-08 05:28 | 10.87197 | 106.90548 | 5142 ft | 262 kts | 267° |
| 2026-05-08 05:28 | 10.87299 | 106.88724 | 4752 ft | 258 kts | 281° |
| 2026-05-08 05:28 | 10.87594 | 106.86950 | 4520 ft | 249 kts | 281° |
| 2026-05-08 05:28 | 10.87879 | 106.85214 | 4040 ft | 252 kts | 281° |
| 2026-05-08 05:29 | 10.88171 | 106.83425 | 3429 ft | 256 kts | 280° |
| 2026-05-08 05:29 | 10.88175 | 106.81652 | 3067 ft | 249 kts | 261° |
| 2026-05-08 05:29 | 10.87644 | 106.79982 | 2735 ft | 247 kts | 250° |
| 2026-05-08 05:29 | 10.87029 | 106.78364 | 2420 ft | 243 kts | 250° |
| 2026-05-08 05:30 | 10.86426 | 106.76769 | 2113 ft | 232 kts | 250° |
| 2026-05-08 05:30 | 10.86051 | 106.75774 | 1920 ft | 227 kts | 250° |
| 2026-05-08 05:30 | 10.85496 | 106.74303 | 1654 ft | 214 kts | 251° |
| 2026-05-08 05:30 | 10.84984 | 106.72945 | 1378 ft | 198 kts | 250° |
| 2026-05-08 05:31 | 10.84513 | 106.71695 | 1163 ft | 179 kts | 249° |
| 2026-05-08 05:31 | 10.84082 | 106.70552 | 927 ft | 169 kts | 249° |
| 2026-05-08 05:31 | 10.83672 | 106.69462 | 750 ft | 163 kts | 248° |
| 2026-05-08 05:31 | 10.83272 | 106.68388 | 571 ft | 161 kts | 249° |
| 2026-05-08 05:32 | 10.82872 | 106.67337 | 352 ft | 159 kts | 247° |
| 2026-05-08 05:32 | 10.82480 | 106.66299 | 103 ft | 156 kts | 248° |
| 2026-05-08 05:32 | 10.82114 | 106.65347 | 37 ft | 116 kts | 249° |
| 2026-05-08 05:32 | 10.81937 | 106.64868 | 36 ft | 29 kts | 249° |
| 2026-05-08 05:33 | 10.81899 | 106.64774 | 36 ft | 13 kts | 244° |
| 2026-05-08 05:33 | 10.81844 | 106.64692 | 36 ft | 17 kts | 231° |
| 2026-05-08 05:33 | 10.81761 | 106.64606 | 39 ft | 16 kts | 219° |
| 2026-05-08 05:33 | 10.81674 | 106.64533 | 37 ft | 16 kts | 219° |
| 2026-05-08 05:34 | 10.81601 | 106.64440 | 37 ft | 18 kts | 246° |
| 2026-05-08 05:34 | 10.81564 | 106.64351 | 36 ft | 13 kts | 247° |
| 2026-05-08 05:34 | 10.81498 | 106.64309 | 36 ft | 12 kts | 165° |
| 2026-05-08 05:34 | 10.81423 | 106.64341 | 37 ft | 12 kts | 158° |
| 2026-05-08 05:35 | 10.81346 | 106.64373 | 37 ft | 13 kts | 158° |
| 2026-05-08 05:35 | 10.81259 | 106.64409 | 36 ft | 14 kts | 154° |
| 2026-05-08 05:35 | 10.81224 | 106.64489 | 38 ft | 12 kts | 101° |
| 2026-05-08 05:35 | 10.81212 | 106.64567 | 40 ft | 11 kts | 98° |
| 2026-05-08 05:36 | 10.81218 | 106.64673 | 38 ft | 19 kts | 72° |
| 2026-05-08 05:36 | 10.81267 | 106.64803 | 38 ft | 20 kts | 69° |
| 2026-05-08 05:36 | 10.81318 | 106.64940 | 38 ft | 21 kts | 69° |
| 2026-05-08 05:36 | 10.81371 | 106.65081 | 38 ft | 22 kts | 69° |
| 2026-05-08 05:37 | 10.81430 | 106.65233 | 37 ft | 23 kts | 68° |
| 2026-05-08 05:37 | 10.81490 | 106.65389 | 35 ft | 24 kts | 69° |
| 2026-05-08 05:37 | 10.81549 | 106.65547 | 35 ft | 24 kts | 69° |
| 2026-05-08 05:37 | 10.81607 | 106.65701 | 37 ft | 23 kts | 69° |
| 2026-05-08 05:38 | 10.81664 | 106.65851 | 36 ft | 22 kts | 69° |
| 2026-05-08 05:38 | 10.81715 | 106.65989 | 37 ft | 16 kts | 70° |
| 2026-05-08 05:38 | 10.81681 | 106.66052 | 37 ft | 10 kts | 168° |
| 2026-05-08 05:38 | 10.81616 | 106.66049 | 37 ft | 9 kts | 185° |
| 2026-05-08 05:39 | 10.81560 | 106.66044 | 37 ft | 8 kts | 185° |
| 2026-05-08 05:39 | 10.81501 | 106.66039 | 37 ft | 10 kts | 185° |
| 2026-05-08 05:39 | 10.81430 | 106.66033 | 37 ft | 7 kts | 181° |
| 2026-05-08 05:39 | 10.81399 | 106.66058 | 37 ft | 6 kts | 110° |
| 2026-05-08 05:40 | 10.81395 | 106.66101 | 37 ft | 6 kts | 95° |
| 2026-05-08 05:40 | 10.81394 | 106.66119 | 37 ft | 0 kts | 95° |